createdAt,value
2017-12-05T00:00:09.857Z,101475.34
2017-12-05T00:01:14.922Z,101474.49
2017-12-05T00:02:21.386Z,101474.56
2017-12-05T00:03:27.154Z,101475.47
2017-12-05T00:04:33.039Z,101461.61
2017-12-05T00:05:38.868Z,101474.17
2017-12-05T00:06:44.572Z,101471.14
2017-12-05T00:07:50.304Z,101473.39
2017-12-05T00:08:56.021Z,101469.11
2017-12-05T00:10:02.504Z,101471.70
2017-12-05T00:11:08.213Z,101469.97
2017-12-05T00:12:13.908Z,101475.62
2017-12-05T00:13:19.827Z,101465.21
2017-12-05T00:14:25.669Z,101474.33
2017-12-05T00:15:30.663Z,101472.57
2017-12-05T00:16:36.843Z,101476.84
2017-12-05T00:17:42.562Z,101469.86
2017-12-05T00:18:49.044Z,101475.11
2017-12-05T00:19:55.506Z,101471.20
2017-12-05T00:21:01.224Z,101471.64
2017-12-05T00:22:08.112Z,101474.63
2017-12-05T00:23:13.833Z,101469.84
2017-12-05T00:24:20.311Z,101472.39
2017-12-05T00:25:26.000Z,101476.72
2017-12-05T00:26:31.723Z,101474.97
2017-12-05T00:27:37.417Z,101474.93
2017-12-05T00:28:43.881Z,101471.50
2017-12-05T00:29:49.585Z,101474.91
2017-12-05T00:30:55.364Z,101472.72
2017-12-05T00:32:01.858Z,101476.58
2017-12-05T00:33:07.258Z,101474.46
2017-12-05T00:34:13.385Z,101474.89
2017-12-05T00:35:19.081Z,101480.55
2017-12-05T00:36:24.773Z,101477.96
2017-12-05T00:37:31.272Z,101473.12
2017-12-05T00:38:37.101Z,101476.12
2017-12-05T00:39:42.787Z,101474.77
2017-12-05T00:40:48.527Z,101475.61
2017-12-05T00:41:53.884Z,101480.33
2017-12-05T00:43:00.380Z,101472.16
2017-12-05T00:44:06.080Z,101467.41
2017-12-05T00:45:11.911Z,101471.73
2017-12-05T00:46:16.953Z,101471.35
2017-12-05T00:47:23.090Z,101471.78
2017-12-05T00:48:28.818Z,101468.31
2017-12-05T00:49:34.545Z,101470.48
2017-12-05T00:50:40.246Z,101468.25
2017-12-05T00:51:45.947Z,101468.67
2017-12-05T00:52:51.675Z,101464.77
2017-12-05T00:53:57.583Z,101468.19
2017-12-05T00:55:03.273Z,101468.67
2017-12-05T00:56:08.977Z,101466.00
2017-12-05T00:57:14.677Z,101464.34
2017-12-05T00:58:21.154Z,101479.55
2017-12-05T00:59:26.861Z,101466.61
2017-12-05T01:00:33.342Z,101474.47
2017-12-05T01:01:39.904Z,101471.42
2017-12-05T01:02:45.605Z,101472.25
2017-12-05T01:03:51.310Z,101477.45
2017-12-05T01:04:57.048Z,101473.98
2017-12-05T01:06:02.744Z,101474.91
2017-12-05T01:07:09.217Z,101476.16
2017-12-05T01:08:15.695Z,101473.09
2017-12-05T01:09:21.385Z,101470.44
2017-12-05T01:10:27.136Z,101471.36
2017-12-05T01:11:33.275Z,101473.91
2017-12-05T01:12:39.750Z,101470.91
2017-12-05T01:13:46.232Z,101469.19
2017-12-05T01:14:52.686Z,101470.05
2017-12-05T01:15:58.407Z,101468.69
2017-12-05T01:17:04.863Z,101467.84
2017-12-05T01:18:11.357Z,101467.80
2017-12-05T01:19:17.048Z,101463.47
2017-12-05T01:20:22.755Z,101471.72
2017-12-05T01:21:28.472Z,101463.06
2017-12-05T01:22:34.178Z,101462.55
2017-12-05T01:23:39.946Z,101463.05
2017-12-05T01:24:45.653Z,101460.02
2017-12-05T01:25:51.349Z,101459.99
2017-12-05T01:26:57.113Z,101459.06
2017-12-05T01:28:02.606Z,101458.19
2017-12-05T01:29:09.092Z,101459.06
2017-12-05T01:30:14.786Z,101457.31
2017-12-05T01:31:21.248Z,101453.83
2017-12-05T01:32:27.746Z,101457.27
2017-12-05T01:33:33.449Z,101461.16
2017-12-05T01:34:39.184Z,101453.34
2017-12-05T01:35:44.872Z,101458.98
2017-12-05T01:36:50.572Z,101462.88
2017-12-05T01:37:57.060Z,101461.09
2017-12-05T01:39:02.765Z,101455.88
2017-12-05T01:40:09.224Z,101462.36
2017-12-05T01:41:15.044Z,101461.88
2017-12-05T01:42:20.731Z,101459.20
2017-12-05T01:43:26.159Z,101456.67
2017-12-05T01:44:32.621Z,101462.33
2017-12-05T01:45:38.554Z,101456.17
2017-12-05T01:46:44.261Z,101455.72
2017-12-05T01:47:49.761Z,101462.59
2017-12-05T01:48:55.489Z,101463.81
2017-12-05T01:50:00.869Z,101455.62
2017-12-05T01:51:06.589Z,101460.34
2017-12-05T01:52:12.485Z,101465.16
2017-12-05T01:53:17.997Z,101461.70
2017-12-05T01:54:23.533Z,101464.76
2017-12-05T01:55:29.235Z,101462.59
2017-12-05T01:56:34.925Z,101463.54
2017-12-05T01:57:41.401Z,101468.38
2017-12-05T01:58:47.012Z,101469.23
2017-12-05T01:59:52.410Z,101468.38
2017-12-05T02:00:57.030Z,101466.20
2017-12-05T02:02:02.728Z,101463.55
2017-12-05T02:03:08.438Z,101461.38
2017-12-05T02:04:13.289Z,101458.84
2017-12-05T02:05:18.349Z,101458.38
2017-12-05T02:06:23.720Z,101456.22
2017-12-05T02:07:29.098Z,101452.75
2017-12-05T02:08:34.801Z,101457.11
2017-12-05T02:09:40.542Z,101451.52
2017-12-05T02:10:46.855Z,101454.98
2017-12-05T02:11:52.635Z,101457.17
2017-12-05T02:12:58.430Z,101451.10
2017-12-05T02:14:03.295Z,101445.02
2017-12-05T02:15:09.018Z,101450.67
2017-12-05T02:16:14.065Z,101446.82
2017-12-05T02:17:20.552Z,101444.16
2017-12-05T02:18:26.833Z,101448.05
2017-12-05T02:19:32.213Z,101453.27
2017-12-05T02:20:38.383Z,101447.63
2017-12-05T02:21:44.681Z,101444.61
2017-12-05T02:22:49.715Z,101444.65
2017-12-05T02:23:55.408Z,101443.77
2017-12-05T02:25:01.118Z,101441.55
2017-12-05T02:26:06.812Z,101441.98
2017-12-05T02:27:12.546Z,101444.20
2017-12-05T02:28:18.252Z,101441.52
2017-12-05T02:29:24.718Z,101441.99
2017-12-05T02:30:30.412Z,101445.43
2017-12-05T02:31:36.114Z,101448.84
2017-12-05T02:32:41.845Z,101441.88
2017-12-05T02:33:47.316Z,101439.23
2017-12-05T02:34:53.028Z,101443.13
2017-12-05T02:35:58.752Z,101433.16
2017-12-05T02:37:05.226Z,101438.85
2017-12-05T02:38:10.958Z,101438.00
2017-12-05T02:39:16.473Z,101437.56
2017-12-05T02:40:21.277Z,101440.23
2017-12-05T02:41:26.650Z,101438.93
2017-12-05T02:42:32.378Z,101442.77
2017-12-05T02:43:38.048Z,101437.98
2017-12-05T02:44:43.753Z,101434.10
2017-12-05T02:45:49.890Z,101439.78
2017-12-05T02:46:54.925Z,101434.10
2017-12-05T02:48:01.389Z,101434.95
2017-12-05T02:49:07.560Z,101431.53
2017-12-05T02:50:12.917Z,101430.67
2017-12-05T02:51:17.967Z,101425.91
2017-12-05T02:52:23.661Z,101422.81
2017-12-05T02:53:28.698Z,101427.56
2017-12-05T02:54:34.116Z,101422.78
2017-12-05T02:55:39.150Z,101432.33
2017-12-05T02:56:44.518Z,101424.02
2017-12-05T02:57:50.216Z,101425.33
2017-12-05T02:58:55.251Z,101425.81
2017-12-05T03:00:00.641Z,101415.78
2017-12-05T03:01:06.440Z,101418.81
2017-12-05T03:02:12.137Z,101419.25
2017-12-05T03:03:17.167Z,101415.33
2017-12-05T03:04:22.233Z,101420.52
2017-12-05T03:05:27.619Z,101419.66
2017-12-05T03:06:34.092Z,101417.08
2017-12-05T03:07:39.802Z,101417.56
2017-12-05T03:08:46.267Z,101416.66
2017-12-05T03:09:52.740Z,101417.94
2017-12-05T03:10:58.143Z,101417.88
2017-12-05T03:12:03.508Z,101408.30
2017-12-05T03:13:09.544Z,101410.84
2017-12-05T03:14:14.911Z,101409.96
2017-12-05T03:15:20.290Z,101411.70
2017-12-05T03:16:26.024Z,101414.79
2017-12-05T03:17:31.725Z,101410.45
2017-12-05T03:18:36.761Z,101414.28
2017-12-05T03:19:42.467Z,101410.81
2017-12-05T03:20:48.157Z,101412.11
2017-12-05T03:21:53.889Z,101413.36
2017-12-05T03:22:59.248Z,101410.28
2017-12-05T03:24:05.381Z,101409.37
2017-12-05T03:25:11.090Z,101412.83
2017-12-05T03:26:16.789Z,101414.91
2017-12-05T03:27:23.285Z,101410.97
2017-12-05T03:28:28.982Z,101411.88
2017-12-05T03:29:35.444Z,101417.94
2017-12-05T03:30:41.914Z,101413.57
2017-12-05T03:31:48.382Z,101414.88
2017-12-05T03:32:54.109Z,101420.00
2017-12-05T03:33:59.712Z,101417.75
2017-12-05T03:35:21.813Z,101414.73
2017-12-05T03:36:27.501Z,101418.69
2017-12-05T03:37:33.969Z,101418.65
2017-12-05T03:38:40.463Z,101416.05
2017-12-05T03:39:46.168Z,101411.69
2017-12-05T03:40:52.642Z,101418.99
2017-12-05T03:41:58.345Z,101414.20
2017-12-05T03:43:04.041Z,101421.58
2017-12-05T03:44:10.030Z,101420.63
2017-12-05T03:45:16.498Z,101421.84
2017-12-05T03:46:22.053Z,101417.55
2017-12-05T03:47:28.520Z,101424.89
2017-12-05T03:48:34.212Z,101421.39
2017-12-05T03:49:39.936Z,101423.47
2017-12-05T03:50:45.453Z,101427.35
2017-12-05T03:51:51.150Z,101436.34
2017-12-05T03:52:57.421Z,101422.87
2017-12-05T03:54:03.881Z,101428.52
2017-12-05T03:55:09.609Z,101421.10
2017-12-05T03:56:16.081Z,101430.25
2017-12-05T03:57:22.550Z,101428.83
2017-12-05T03:58:28.243Z,101431.02
2017-12-05T03:59:33.954Z,101430.91
2017-12-05T04:00:39.672Z,101424.82
2017-12-05T04:01:45.376Z,101425.27
2017-12-05T04:02:51.076Z,101429.61
2017-12-05T04:03:56.782Z,101433.95
2017-12-05T04:05:03.246Z,101429.58
2017-12-05T04:06:08.779Z,101433.00
2017-12-05T04:07:15.237Z,101430.37
2017-12-05T04:08:20.936Z,101439.00
2017-12-05T04:09:26.640Z,101435.16
2017-12-05T04:10:32.332Z,101433.00
2017-12-05T04:11:38.828Z,101433.34
2017-12-05T04:12:44.539Z,101438.97
2017-12-05T04:13:51.004Z,101434.98
2017-12-05T04:14:57.472Z,101435.84
2017-12-05T04:16:03.194Z,101436.27
2017-12-05T04:17:08.922Z,101438.45
2017-12-05T04:18:14.626Z,101439.86
2017-12-05T04:19:20.401Z,101435.91
2017-12-05T04:20:26.097Z,101434.13
2017-12-05T04:21:31.809Z,101441.08
2017-12-05T04:22:38.300Z,101437.27
2017-12-05T04:23:44.042Z,101438.20
2017-12-05T04:24:49.547Z,101439.06
2017-12-05T04:25:56.008Z,101437.77
2017-12-05T04:27:01.700Z,101442.64
2017-12-05T04:28:07.424Z,101441.78
2017-12-05T04:29:13.136Z,101439.19
2017-12-05T04:30:18.835Z,101439.59
2017-12-05T04:31:24.537Z,101441.84
2017-12-05T04:32:29.906Z,101444.05
2017-12-05T04:33:35.625Z,101443.01
2017-12-05T04:34:41.381Z,101438.19
2017-12-05T04:35:47.517Z,101438.13
2017-12-05T04:36:53.212Z,101442.11
2017-12-05T04:37:58.916Z,101443.01
2017-12-05T04:39:04.084Z,101446.39
2017-12-05T04:40:09.445Z,101442.45
2017-12-05T04:41:15.149Z,101443.75
2017-12-05T04:42:20.840Z,101442.56
2017-12-05T04:43:26.332Z,101445.19
2017-12-05T04:44:32.073Z,101449.48
2017-12-05T04:45:37.802Z,101445.58
2017-12-05T04:46:44.278Z,101448.56
2017-12-05T04:47:49.969Z,101445.16
2017-12-05T04:48:55.357Z,101441.27
2017-12-05T04:50:00.748Z,101437.79
2017-12-05T04:51:07.209Z,101444.64
2017-12-05T04:52:13.587Z,101451.13
2017-12-05T04:53:20.045Z,101448.01
2017-12-05T04:54:25.428Z,101450.98
2017-12-05T04:55:30.957Z,101445.84
2017-12-05T04:56:36.316Z,101447.31
2017-12-05T04:57:41.832Z,101444.72
2017-12-05T04:58:47.533Z,101454.21
2017-12-05T04:59:53.045Z,101452.03
2017-12-05T05:00:58.869Z,101451.93
2017-12-05T05:02:03.717Z,101458.84
2017-12-05T05:03:09.846Z,101455.31
2017-12-05T05:04:15.390Z,101460.19
2017-12-05T05:05:21.898Z,101456.80
2017-12-05T05:06:27.628Z,101457.67
2017-12-05T05:07:33.316Z,101461.52
2017-12-05T05:08:39.033Z,101454.13
2017-12-05T05:09:45.134Z,101457.06
2017-12-05T05:10:51.603Z,101457.05
2017-12-05T05:11:57.159Z,101453.14
2017-12-05T05:13:03.065Z,101456.69
2017-12-05T05:14:09.530Z,101458.86
2017-12-05T05:15:16.048Z,101461.85
2017-12-05T05:16:21.543Z,101458.77
2017-12-05T05:17:27.137Z,101469.53
2017-12-05T05:18:32.825Z,101464.75
2017-12-05T05:19:38.334Z,101465.22
2017-12-05T05:20:44.805Z,101461.70
2017-12-05T05:21:50.323Z,101463.44
2017-12-05T05:22:57.205Z,101467.78
2017-12-05T05:24:03.477Z,101466.84
2017-12-05T05:25:09.172Z,101469.81
2017-12-05T05:26:14.684Z,101469.43
2017-12-05T05:27:20.271Z,101467.73
2017-12-05T05:28:26.868Z,101464.66
2017-12-05T05:29:32.603Z,101462.89
2017-12-05T05:30:38.113Z,101460.23
2017-12-05T05:31:43.840Z,101460.20
2017-12-05T05:32:50.853Z,101459.27
2017-12-05T05:33:56.596Z,101464.49
2017-12-05T05:35:02.107Z,101468.83
2017-12-05T05:36:07.801Z,101460.63
2017-12-05T05:37:13.547Z,101473.16
2017-12-05T05:38:20.000Z,101460.19
2017-12-05T05:39:25.734Z,101461.42
2017-12-05T05:40:31.240Z,101462.30
2017-12-05T05:41:36.952Z,101460.73
2017-12-05T05:42:43.415Z,101460.83
2017-12-05T05:43:49.118Z,101466.52
2017-12-05T05:44:54.848Z,101465.23
2017-12-05T05:46:00.556Z,101473.91
2017-12-05T05:47:06.248Z,101470.84
2017-12-05T05:48:11.770Z,101471.20
2017-12-05T05:49:17.280Z,101470.34
2017-12-05T05:50:23.010Z,101469.02
2017-12-05T05:51:28.533Z,101470.73
2017-12-05T05:52:34.232Z,101466.44
2017-12-05T05:53:39.921Z,101471.30
2017-12-05T05:54:45.616Z,101469.56
2017-12-05T05:55:51.337Z,101464.67
2017-12-05T05:56:57.045Z,101463.77
2017-12-05T05:58:02.742Z,101467.19
2017-12-05T05:59:09.209Z,101466.31
2017-12-05T06:00:15.702Z,101468.99
2017-12-05T06:01:21.649Z,101463.03
2017-12-05T06:02:27.349Z,101470.92
2017-12-05T06:03:33.863Z,101470.88
2017-12-05T06:04:39.566Z,101468.61
2017-12-05T06:05:45.274Z,101472.50
2017-12-05T06:06:50.997Z,101471.75
2017-12-05T06:07:56.707Z,101474.79
2017-12-05T06:09:02.477Z,101474.34
2017-12-05T06:10:08.184Z,101472.14
2017-12-05T06:11:13.930Z,101474.34
2017-12-05T06:12:19.902Z,101476.95
2017-12-05T06:13:25.625Z,101475.73
2017-12-05T06:14:31.349Z,101476.68
2017-12-05T06:15:38.077Z,101480.48
2017-12-05T06:16:43.790Z,101477.40
2017-12-05T06:17:49.508Z,101482.17
2017-12-05T06:18:55.216Z,101486.09
2017-12-05T06:20:01.702Z,101486.48
2017-12-05T06:21:07.429Z,101482.59
2017-12-05T06:22:13.117Z,101486.06
2017-12-05T06:23:18.901Z,101487.69
2017-12-05T06:24:25.362Z,101485.03
2017-12-05T06:25:30.852Z,101489.89
2017-12-05T06:26:37.053Z,101492.05
2017-12-05T06:27:42.755Z,101492.08
2017-12-05T06:28:48.485Z,101490.34
2017-12-05T06:29:54.184Z,101486.00
2017-12-05T06:30:59.887Z,101480.84
2017-12-05T06:32:06.357Z,101485.22
2017-12-05T06:33:12.823Z,101485.30
2017-12-05T06:34:19.316Z,101490.87
2017-12-05T06:35:25.023Z,101488.37
2017-12-05T06:36:30.721Z,101485.31
2017-12-05T06:37:36.564Z,101486.19
2017-12-05T06:38:42.269Z,101483.98
2017-12-05T06:39:48.793Z,101496.68
2017-12-05T06:40:55.368Z,101487.98
2017-12-05T06:42:01.631Z,101492.36
2017-12-05T06:43:07.347Z,101490.98
2017-12-05T06:44:13.065Z,101493.22
2017-12-05T06:45:18.953Z,101493.67
2017-12-05T06:46:25.404Z,101508.03
2017-12-05T06:47:31.109Z,101509.30
2017-12-05T06:48:36.796Z,101508.80
2017-12-05T06:49:42.495Z,101513.55
2017-12-05T06:50:47.637Z,101516.09
2017-12-05T06:51:53.149Z,101521.76
2017-12-05T06:52:58.356Z,101518.72
2017-12-05T06:54:03.809Z,101513.11
2017-12-05T06:55:10.213Z,101517.57
2017-12-05T06:56:16.353Z,101515.41
2017-12-05T06:57:22.181Z,101523.50
2017-12-05T06:58:27.981Z,101527.83
2017-12-05T06:59:33.027Z,101520.89
2017-12-05T07:00:38.100Z,101521.83
2017-12-05T07:01:43.824Z,101531.39
2017-12-05T07:02:49.969Z,101521.23
2017-12-05T07:03:56.107Z,101523.92
2017-12-05T07:05:01.947Z,101530.17
2017-12-05T07:06:07.326Z,101535.75
2017-12-05T07:07:12.392Z,101531.23
2017-12-05T07:08:17.428Z,101536.44
2017-12-05T07:09:22.620Z,101535.93
2017-12-05T07:10:28.317Z,101550.26
2017-12-05T07:11:34.112Z,101541.55
2017-12-05T07:12:39.828Z,101536.24
2017-12-05T07:13:44.883Z,101542.27
2017-12-05T07:14:49.921Z,101539.25
2017-12-05T07:15:54.956Z,101544.53
2017-12-05T07:16:59.995Z,101545.01
2017-12-05T07:18:05.933Z,101548.06
2017-12-05T07:19:12.105Z,101548.50
2017-12-05T07:20:18.695Z,101552.33
2017-12-05T07:21:23.725Z,101556.14
2017-12-05T07:22:28.767Z,101555.30
2017-12-05T07:23:34.191Z,101551.78
2017-12-05T07:24:39.257Z,101552.58
2017-12-05T07:25:45.390Z,101552.05
2017-12-05T07:26:50.748Z,101549.02
2017-12-05T07:27:56.549Z,101557.39
2017-12-05T07:29:01.635Z,101557.48
2017-12-05T07:30:07.761Z,101560.17
2017-12-05T07:31:14.650Z,101561.06
2017-12-05T07:32:20.076Z,101558.45
2017-12-05T07:33:26.645Z,101562.34
2017-12-05T07:34:32.625Z,101560.25
2017-12-05T07:35:39.532Z,101558.87
2017-12-05T07:36:44.569Z,101561.38
2017-12-05T07:37:50.373Z,101562.70
2017-12-05T07:38:56.522Z,101567.06
2017-12-05T07:40:01.597Z,101567.47
2017-12-05T07:41:07.749Z,101569.19
2017-12-05T07:42:12.782Z,101562.16
2017-12-05T07:43:17.900Z,101569.98
2017-12-05T07:44:23.436Z,101570.77
2017-12-05T07:45:29.432Z,101569.86
2017-12-05T07:46:35.949Z,101570.67
2017-12-05T07:47:41.381Z,101575.09
2017-12-05T07:48:46.543Z,101572.91
2017-12-05T07:49:51.732Z,101582.08
2017-12-05T07:50:57.724Z,101575.03
2017-12-05T07:52:03.003Z,101587.22
2017-12-05T07:53:08.832Z,101584.67
2017-12-05T07:54:15.410Z,101585.52
2017-12-05T07:55:21.972Z,101587.16
2017-12-05T07:56:27.464Z,101591.11
2017-12-05T07:57:33.928Z,101588.06
2017-12-05T07:58:39.739Z,101590.22
2017-12-05T07:59:45.291Z,101585.45
2017-12-05T08:00:50.372Z,101587.95
2017-12-05T08:01:55.954Z,101588.27
2017-12-05T08:03:01.709Z,101582.98
2017-12-05T08:04:07.375Z,101592.92
2017-12-05T08:05:13.689Z,101595.59
2017-12-05T08:06:19.491Z,101590.45
2017-12-05T08:07:25.164Z,101583.95
2017-12-05T08:08:30.626Z,101590.47
2017-12-05T08:09:35.829Z,101589.97
2017-12-05T08:10:41.323Z,101592.54
2017-12-05T08:11:46.889Z,101585.07
2017-12-05T08:12:52.363Z,101586.80
2017-12-05T08:13:58.160Z,101595.09
2017-12-05T08:15:03.435Z,101597.02
2017-12-05T08:16:10.535Z,101595.70
2017-12-05T08:17:16.275Z,101592.67
2017-12-05T08:18:22.535Z,101599.30
2017-12-05T08:19:27.964Z,101595.78
2017-12-05T08:20:33.369Z,101595.25
2017-12-05T08:21:39.726Z,101602.59
2017-12-05T08:22:45.707Z,101600.90
2017-12-05T08:23:52.086Z,101600.32
2017-12-05T08:24:57.814Z,101602.53
2017-12-05T08:26:04.549Z,101602.48
2017-12-05T08:27:11.168Z,101601.27
2017-12-05T08:28:16.145Z,101601.67
2017-12-05T08:29:21.800Z,101599.42
2017-12-05T08:30:27.290Z,101600.20
2017-12-05T08:31:32.715Z,101608.92
2017-12-05T08:32:37.885Z,101601.77
2017-12-05T08:33:43.105Z,101603.37
2017-12-05T08:34:48.290Z,101608.53
2017-12-05T08:35:53.796Z,101604.52
2017-12-05T08:36:58.776Z,101607.45
2017-12-05T08:38:05.449Z,101608.50
2017-12-05T08:39:11.753Z,101602.83
2017-12-05T08:40:17.770Z,101613.54
2017-12-05T08:41:23.285Z,101623.08
2017-12-05T08:42:29.298Z,101620.41
2017-12-05T08:43:35.588Z,101613.11
2017-12-05T08:44:41.803Z,101618.40
2017-12-05T08:45:47.237Z,101619.75
2017-12-05T08:46:53.038Z,101622.75
2017-12-05T08:47:58.108Z,101627.14
2017-12-05T08:49:03.620Z,101622.38
2017-12-05T08:50:09.112Z,101628.44
2017-12-05T08:51:15.483Z,101620.63
2017-12-05T08:52:20.582Z,101627.02
2017-12-05T08:53:26.371Z,101628.31
2017-12-05T08:54:31.573Z,101631.36
2017-12-05T08:55:36.711Z,101628.36
2017-12-05T08:56:42.263Z,101621.80
2017-12-05T08:57:47.776Z,101623.58
2017-12-05T08:58:52.906Z,101625.36
2017-12-05T08:59:58.341Z,101624.52
2017-12-05T09:01:03.422Z,101628.86
2017-12-05T09:02:08.489Z,101632.23
2017-12-05T09:03:14.201Z,101631.81
2017-12-05T09:04:20.345Z,101637.39
2017-12-05T09:05:26.865Z,101637.30
2017-12-05T09:06:31.940Z,101634.85
2017-12-05T09:07:38.167Z,101633.15
2017-12-05T09:08:44.004Z,101634.51
2017-12-05T09:09:49.543Z,101634.85
2017-12-05T09:10:54.958Z,101633.00
2017-12-05T09:12:00.204Z,101628.64
2017-12-05T09:13:05.769Z,101640.44
2017-12-05T09:14:11.242Z,101637.45
2017-12-05T09:15:16.393Z,101637.02
2017-12-05T09:16:21.780Z,101633.04
2017-12-05T09:17:26.991Z,101633.91
2017-12-05T09:18:32.485Z,101635.97
2017-12-05T09:19:37.993Z,101636.38
2017-12-05T09:20:43.939Z,101634.69
2017-12-05T09:21:49.584Z,101635.62
2017-12-05T09:22:55.362Z,101640.77
2017-12-05T09:24:00.945Z,101639.38
2017-12-05T09:25:07.213Z,101644.55
2017-12-05T09:26:13.122Z,101645.36
2017-12-05T09:27:19.272Z,101650.10
2017-12-05T09:28:24.677Z,101647.98
2017-12-05T09:29:29.773Z,101634.91
2017-12-05T09:30:36.586Z,101639.56
2017-12-05T09:31:43.603Z,101640.33
2017-12-05T09:32:49.124Z,101645.88
2017-12-05T09:33:55.256Z,101641.62
2017-12-05T09:35:00.383Z,101638.66
2017-12-05T09:36:05.474Z,101639.92
2017-12-05T09:37:11.587Z,101639.04
2017-12-05T09:38:17.412Z,101639.91
2017-12-05T09:39:22.823Z,101639.91
2017-12-05T09:40:28.043Z,101637.31
2017-12-05T09:41:33.221Z,101642.75
2017-12-05T09:42:38.621Z,101645.79
2017-12-05T09:43:43.698Z,101637.80
2017-12-05T09:44:48.794Z,101639.96
2017-12-05T09:45:54.643Z,101636.83
2017-12-05T09:47:01.233Z,101641.92
2017-12-05T09:48:07.452Z,101638.03
2017-12-05T09:49:13.736Z,101642.02
2017-12-05T09:50:18.801Z,101639.85
2017-12-05T09:51:23.893Z,101638.87
2017-12-05T09:52:28.946Z,101641.42
2017-12-05T09:53:33.980Z,101638.33
2017-12-05T09:54:39.854Z,101633.08
2017-12-05T09:55:46.326Z,101631.05
2017-12-05T09:56:51.835Z,101623.71
2017-12-05T09:57:56.888Z,101622.36
2017-12-05T09:59:02.597Z,101626.48
2017-12-05T10:00:08.815Z,101629.83
2017-12-05T10:01:13.894Z,101625.89
2017-12-05T10:02:19.975Z,101620.68
2017-12-05T10:03:25.411Z,101616.66
2017-12-05T10:04:30.818Z,101616.02
2017-12-05T10:05:37.080Z,101616.28
2017-12-05T10:06:42.496Z,101614.97
2017-12-05T10:07:47.703Z,101614.07
2017-12-05T10:08:52.752Z,101612.84
2017-12-05T10:09:58.220Z,101613.58
2017-12-05T10:11:03.422Z,101614.23
2017-12-05T10:12:08.820Z,101611.38
2017-12-05T10:13:15.039Z,101612.59
2017-12-05T10:14:20.370Z,101616.16
2017-12-05T10:15:26.218Z,101618.46
2017-12-05T10:16:31.708Z,101609.23
2017-12-05T10:17:38.009Z,101606.25
2017-12-05T10:18:43.437Z,101605.00
2017-12-05T10:19:48.947Z,101600.28
2017-12-05T10:20:54.584Z,101607.36
2017-12-05T10:21:59.753Z,101602.58
2017-12-05T10:23:04.882Z,101604.75
2017-12-05T10:24:10.440Z,101602.36
2017-12-05T10:25:15.996Z,101599.61
2017-12-05T10:26:22.311Z,101607.11
2017-12-05T10:27:27.497Z,101605.05
2017-12-05T10:28:32.587Z,101609.71
2017-12-05T10:29:38.138Z,101595.25
2017-12-05T10:30:43.953Z,101595.77
2017-12-05T10:31:49.053Z,101601.91
2017-12-05T10:32:54.294Z,101593.19
2017-12-05T10:34:00.029Z,101599.77
2017-12-05T10:35:06.041Z,101606.73
2017-12-05T10:36:11.576Z,101598.96
2017-12-05T10:37:16.669Z,101599.56
2017-12-05T10:38:21.752Z,101607.42
2017-12-05T10:39:27.671Z,101607.36
2017-12-05T10:40:33.132Z,101609.05
2017-12-05T10:41:39.016Z,101614.27
2017-12-05T10:42:44.526Z,101613.92
2017-12-05T10:43:49.992Z,101613.65
2017-12-05T10:44:55.969Z,101613.58
2017-12-05T10:46:01.090Z,101614.09
2017-12-05T10:47:06.889Z,101618.54
2017-12-05T10:48:12.756Z,101617.36
2017-12-05T10:49:18.773Z,101613.56
2017-12-05T10:50:24.025Z,101607.56
2017-12-05T10:51:29.184Z,101618.57
2017-12-05T10:52:35.215Z,101612.05
2017-12-05T10:53:41.079Z,101618.20
2017-12-05T10:54:46.164Z,101620.93
2017-12-05T10:55:51.591Z,101617.50
2017-12-05T10:56:56.778Z,101611.45
2017-12-05T10:58:02.099Z,101617.56
2017-12-05T10:59:07.635Z,101617.05
2017-12-05T11:00:12.704Z,101619.61
2017-12-05T11:01:17.789Z,101615.22
2017-12-05T11:02:23.666Z,101613.52
2017-12-05T11:03:29.645Z,101616.34
2017-12-05T11:04:35.961Z,101621.66
2017-12-05T11:05:41.333Z,101614.73
2017-12-05T11:06:46.797Z,101608.28
2017-12-05T11:07:52.339Z,101611.75
2017-12-05T11:08:57.658Z,101601.23
2017-12-05T11:10:04.407Z,101602.92
2017-12-05T11:11:10.758Z,101603.84
2017-12-05T11:12:16.967Z,101611.20
2017-12-05T11:13:22.779Z,101608.45
2017-12-05T11:14:29.145Z,101603.47
2017-12-05T11:15:34.964Z,101599.42
2017-12-05T11:16:41.446Z,101597.67
2017-12-05T11:17:47.156Z,101598.20
2017-12-05T11:18:53.657Z,101598.14
2017-12-05T11:19:59.372Z,101594.19
2017-12-05T11:21:04.922Z,101596.33
2017-12-05T11:22:10.674Z,101597.20
2017-12-05T11:23:15.887Z,101594.84
2017-12-05T11:24:21.722Z,101591.80
2017-12-05T11:25:27.242Z,101604.09
2017-12-05T11:26:33.337Z,101596.28
2017-12-05T11:27:39.052Z,101601.44
2017-12-05T11:28:44.777Z,101595.25
2017-12-05T11:29:51.289Z,101595.67
2017-12-05T11:30:56.826Z,101593.45
2017-12-05T11:32:03.867Z,101599.13
2017-12-05T11:33:10.090Z,101602.20
2017-12-05T11:34:15.894Z,101597.75
2017-12-05T11:35:21.724Z,101592.94
2017-12-05T11:36:27.197Z,101590.31
2017-12-05T11:37:33.697Z,101599.39
2017-12-05T11:38:39.329Z,101596.83
2017-12-05T11:39:45.160Z,101598.14
2017-12-05T11:40:51.363Z,101604.58
2017-12-05T11:41:57.113Z,101600.05
2017-12-05T11:43:03.289Z,101603.00
2017-12-05T11:44:09.862Z,101606.59
2017-12-05T11:45:15.640Z,101605.72
2017-12-05T11:46:21.377Z,101606.68
2017-12-05T11:47:26.601Z,101608.88
2017-12-05T11:48:32.334Z,101601.99
2017-12-05T11:49:37.973Z,101603.21
2017-12-05T11:50:43.468Z,101597.55
2017-12-05T11:51:49.988Z,101607.71
2017-12-05T11:52:55.709Z,101602.13
2017-12-05T11:54:01.097Z,101606.50
2017-12-05T11:55:06.152Z,101605.64
2017-12-05T11:56:11.874Z,101600.61
2017-12-05T11:57:18.387Z,101608.35
2017-12-05T11:58:24.100Z,101599.23
2017-12-05T11:59:29.808Z,101604.11
2017-12-05T12:00:34.924Z,101603.77
2017-12-05T12:01:40.633Z,101604.59
2017-12-05T12:02:46.572Z,101602.30
2017-12-05T12:03:52.466Z,101598.91
2017-12-05T12:04:58.971Z,101605.55
2017-12-05T12:06:04.441Z,101601.66
2017-12-05T12:07:09.504Z,101597.14
2017-12-05T12:08:15.433Z,101593.34
2017-12-05T12:09:21.975Z,101600.84
2017-12-05T12:10:27.750Z,101601.30
2017-12-05T12:11:34.227Z,101603.53
2017-12-05T12:12:39.937Z,101600.09
2017-12-05T12:13:46.448Z,101596.10
2017-12-05T12:14:52.184Z,101597.84
2017-12-05T12:15:57.901Z,101590.93
2017-12-05T12:17:03.606Z,101583.71
2017-12-05T12:18:10.183Z,101595.99
2017-12-05T12:19:16.726Z,101591.52
2017-12-05T12:20:23.216Z,101592.38
2017-12-05T12:21:28.933Z,101596.75
2017-12-05T12:22:35.420Z,101591.42
2017-12-05T12:23:41.134Z,101577.48
2017-12-05T12:24:47.646Z,101584.54
2017-12-05T12:25:53.358Z,101587.95
2017-12-05T12:26:59.085Z,101586.28
2017-12-05T12:28:04.800Z,101589.42
2017-12-05T12:29:12.029Z,101596.55
2017-12-05T12:30:17.827Z,101587.05